Time;durP1;ratioP1;P1;durP2;ratioP2;P2;SDS_P1;SDS_P2;PMS_P1;PMS_P2;Temp;Humidity;BMP_temperature;BMP_pressure;BME280_temperature;BME280_humidity;BME280_pressure;Samples;Min_cycle;Max_cycle;Signal;HPM_P1;HPM_P2
2023/10/13 00:00:36;;;;;;;205.60;197.05;;;;;;;19.93;62.25;101098.72;5044780;28;20485;-77
2023/10/13 00:03:02;;;;;;;203.95;195.63;;;;;;;19.93;62.68;101090.50;5047146;28;20033;-76
2023/10/13 00:05:28;;;;;;;209.85;200.85;;;;;;;19.93;62.54;101090.50;5040235;28;20064;-77
2023/10/13 00:07:54;;;;;;;204.07;195.70;;;;;;;19.94;62.66;101091.34;5038538;28;20040;-77
2023/10/13 00:10:19;;;;;;;201.90;193.30;;;;;;;19.94;62.61;101085.84;5045529;28;20041;-76
2023/10/13 00:12:49;;;;;;;201.10;192.80;;;;;;;19.94;62.53;101091.34;5050137;28;20049;-76
2023/10/13 00:15:20;;;;;;;206.73;198.02;;;;;;;19.93;62.18;101082.28;5045048;28;20037;-77
2023/10/13 00:17:46;;;;;;;199.20;191.02;;;;;;;19.94;62.21;101074.88;5039504;28;20120;-76
2023/10/13 00:20:17;;;;;;;202.00;193.75;;;;;;;19.94;62.17;101078.44;5042967;28;20156;-77
2023/10/13 00:22:44;;;;;;;209.25;200.63;;;;;;;19.94;62.07;101072.97;5041235;28;20043;-76
2023/10/13 00:25:18;;;;;;;202.00;193.63;;;;;;;19.94;62.35;101072.97;5046950;28;20033;-75
2023/10/13 00:27:44;;;;;;;199.05;191.02;;;;;;;19.94;62.15;101072.16;5049038;28;20440;-77
2023/10/13 00:30:22;;;;;;;203.73;195.43;;;;;;;19.94;62.31;101064.72;5048202;28;20051;-75
2023/10/13 00:32:56;;;;;;;199.95;191.57;;;;;;;19.94;62.11;101067.47;5042704;28;20389;-78
2023/10/13 00:35:29;;;;;;;201.98;193.70;;;;;;;19.94;62.21;101061.19;5036014;28;20495;-78
2023/10/13 00:38:04;;;;;;;202.15;193.55;;;;;;;19.95;62.40;101054.56;5031266;28;20040;-75
2023/10/13 00:45:43;;;;;;;202.85;194.50;;;;;;;19.93;62.43;101051.31;5038935;28;20587;-75
2023/10/13 00:48:13;;;;;;;206.05;197.85;;;;;;;19.94;62.13;101052.97;5042907;28;20025;-75
2023/10/13 00:50:40;;;;;;;205.50;197.07;;;;;;;19.95;62.32;101051.84;5045501;28;20560;-75
2023/10/13 00:53:07;;;;;;;210.50;202.05;;;;;;;19.94;61.91;101048.28;5042535;28;20094;-75
2023/10/13 00:55:34;;;;;;;210.13;201.40;;;;;;;19.94;62.21;101044.72;5041413;28;20062;-76
2023/10/13 00:58:03;;;;;;;208.15;199.73;;;;;;;19.95;62.34;101038.13;5048388;28;20030;-76
2023/10/13 01:00:32;;;;;;;208.38;199.77;;;;;;;19.94;62.39;101037.31;5044888;28;20032;-76
2023/10/13 01:03:06;;;;;;;204.13;195.88;;;;;;;19.95;62.15;101038.13;5049705;28;20441;-76
2023/10/13 01:05:33;;;;;;;207.30;197.68;;;;;;;19.94;62.35;101037.31;5044809;28;20037;-76
2023/10/13 01:08:03;;;;;;;206.32;197.95;;;;;;;19.95;61.91;101027.97;5046696;28;20040;-76
2023/10/13 01:10:32;;;;;;;206.85;198.30;;;;;;;19.96;61.95;101026.88;5048688;28;20068;-76
2023/10/13 01:13:02;;;;;;;208.73;200.18;;;;;;;19.96;62.19;101024.13;5032895;28;20064;-76
2023/10/13 01:15:30;;;;;;;205.82;197.32;;;;;;;19.95;61.72;101013.44;5049814;28;20044;-76
2023/10/13 01:18:16;;;;;;;206.13;197.55;;;;;;;19.95;62.19;101014.25;5035399;28;20113;-76
2023/10/13 01:20:52;;;;;;;209.13;200.38;;;;;;;19.93;62.15;101008.25;5036963;28;20505;-76
2023/10/13 01:23:24;;;;;;;199.10;190.98;;;;;;;19.92;62.08;101001.16;5033354;28;20033;-76
2023/10/13 01:25:50;;;;;;;203.57;195.40;;;;;;;19.92;62.00;100992.94;5040819;28;20045;-76
2023/10/13 01:28:16;;;;;;;202.00;193.77;;;;;;;19.92;62.32;101001.16;5040044;28;20133;-76
2023/10/13 01:30:51;;;;;;;208.85;199.85;;;;;;;19.92;62.36;100990.19;5038157;28;20036;-76
2023/10/13 01:33:26;;;;;;;207.43;198.60;;;;;;;19.94;61.88;100992.63;5034364;28;20494;-76
2023/10/13 01:35:55;;;;;;;208.55;200.18;;;;;;;19.94;61.85;100976.19;5033671;28;20064;-75
2023/10/13 01:38:20;;;;;;;202.77;194.30;;;;;;;19.94;61.77;100970.72;5045689;28;20039;-76
2023/10/13 01:40:51;;;;;;;205.93;197.50;;;;;;;19.94;62.28;100970.72;5046310;28;20037;-76
2023/10/13 01:43:17;;;;;;;201.48;193.38;;;;;;;19.93;62.32;100961.66;5043577;28;20098;-77
2023/10/13 01:45:49;;;;;;;211.60;203.07;;;;;;;19.93;61.96;100969.06;5041614;28;20415;-77
2023/10/13 01:48:18;;;;;;;212.40;203.38;;;;;;;19.93;61.91;100963.56;5039685;28;20064;-77
2023/10/13 01:50:48;;;;;;;;;;;;;;;19.92;61.77;100951.00;5047137;28;20051;-78
2023/10/13 01:53:17;;;;;;;196.70;188.77;;;;;;;19.90;62.01;100945.81;5036097;28;19917;-77
2023/10/13 01:55:43;;;;;;;202.63;194.15;;;;;;;19.92;62.22;100942.78;5038191;28;20411;-78
2023/10/13 01:58:16;;;;;;;200.77;192.57;;;;;;;19.93;61.83;100938.91;5055630;28;20086;-78
2023/10/13 02:00:43;;;;;;;208.38;200.02;;;;;;;19.92;61.96;100946.31;5041712;28;20029;-78
2023/10/13 02:03:16;;;;;;;203.77;195.63;;;;;;;19.93;61.79;100942.44;5029027;28;20424;-78
2023/10/13 02:05:49;;;;;;;205.23;196.85;;;;;;;19.91;62.17;100939.22;5044085;28;20037;-78
2023/10/13 02:08:25;;;;;;;201.40;193.23;;;;;;;19.92;61.79;100945.50;5037232;28;20490;-77
2023/10/13 02:10:55;;;;;;;204.32;196.18;;;;;;;19.91;61.74;100935.66;5047550;28;20044;-77
2023/10/13 02:13:22;;;;;;;205.55;197.18;;;;;;;19.90;61.80;100926.63;5046759;28;20060;-77
2023/10/13 02:15:51;;;;;;;205.98;197.70;;;;;;;19.89;61.74;100919.50;5035323;28;20381;-76
2023/10/13 02:18:21;;;;;;;204.13;195.68;;;;;;;19.89;61.68;100912.09;5040742;28;20032;-76
2023/10/13 02:20:54;;;;;;;209.45;200.75;;;;;;;19.90;61.90;100918.38;5047613;28;20039;-77
2023/10/13 02:23:21;;;;;;;204.57;196.05;;;;;;;19.90;61.70;100901.94;5042578;28;20116;-76
2023/10/13 02:25:46;;;;;;;205.65;197.20;;;;;;;19.89;61.98;100901.13;5045495;28;20033;-76
2023/10/13 02:28:15;;;;;;;209.48;200.85;;;;;;;19.88;62.06;100905.00;5041831;28;20511;-77
2023/10/13 02:30:44;;;;;;;209.10;200.25;;;;;;;19.88;61.89;100894.03;5047742;28;20033;-77
2023/10/13 02:33:13;;;;;;;203.43;195.20;;;;;;;19.88;62.09;100882.22;5046003;28;20040;-76
2023/10/13 02:35:50;;;;;;;208.40;199.77;;;;;;;19.88;62.15;100882.22;5024727;28;20401;-77
2023/10/13 02:38:25;;;;;;;203.02;194.82;;;;;;;19.88;62.32;100868.53;5038830;28;20033;-76
2023/10/13 02:40:51;;;;;;;206.25;198.07;;;;;;;19.88;62.10;100868.53;5040505;28;20072;-77
2023/10/13 02:43:16;;;;;;;204.93;196.48;;;;;;;19.87;62.03;100856.75;5040130;28;20061;-77
2023/10/13 02:45:43;;;;;;;206.10;197.70;;;;;;;19.87;62.23;100861.44;5043853;28;20037;-77
2023/10/13 02:48:17;;;;;;;202.55;194.40;;;;;;;19.86;61.64;100852.41;5043170;28;20496;-77
2023/10/13 02:50:44;;;;;;;203.80;195.52;;;;;;;19.87;61.88;100851.28;5034937;28;20033;-77
2023/10/13 02:53:12;;;;;;;205.82;197.38;;;;;;;19.85;61.86;100834.31;5046351;28;20119;-78
2023/10/13 02:55:50;;;;;;;210.00;201.45;;;;;;;19.87;62.19;100828.53;5040155;28;20040;-77
2023/10/13 02:58:15;;;;;;;210.13;201.13;;;;;;;19.86;61.79;100821.44;5039521;28;20037;-77
2023/10/13 03:00:41;;;;;;;211.40;202.88;;;;;;;19.84;61.86;100816.25;5025264;28;20045;-77
2023/10/13 03:03:07;;;;;;;210.70;201.40;;;;;;;19.86;62.12;100819.50;5044856;28;20531;-77
2023/10/13 03:05:38;;;;;;;206.75;198.40;;;;;;;19.86;62.06;100816.75;5045750;28;20037;-77
2023/10/13 03:08:06;;;;;;;208.10;199.77;;;;;;;19.87;62.17;100814.81;5048957;28;20120;-77
2023/10/13 03:10:32;;;;;;;209.27;200.75;;;;;;;19.86;61.84;100811.28;5033161;28;20065;-77
2023/10/13 03:12:59;;;;;;;210.15;201.75;;;;;;;19.86;62.04;100807.72;5044384;28;20049;-77
2023/10/13 03:15:30;;;;;;;210.05;201.73;;;;;;;19.85;61.88;100803.34;5042980;28;20048;-77
2023/10/13 03:17:59;;;;;;;208.32;199.68;;;;;;;19.86;62.02;100791.28;5043193;28;20370;-77
2023/10/13 03:20:31;;;;;;;;;;;;;;;19.86;62.03;100797.56;5045037;28;20048;-77
2023/10/13 03:22:59;;;;;;;208.98;200.50;;;;;;;19.82;61.69;100785.59;5045239;28;19932;-77
2023/10/13 03:30:30;;;;;;;212.60;203.13;;;;;;;19.82;61.79;100771.88;5042607;28;20062;-78
2023/10/13 03:32:56;;;;;;;212.90;204.23;;;;;;;19.82;61.98;100755.44;5043542;28;20651;-78
2023/10/13 03:35:24;;;;;;;211.05;202.32;;;;;;;19.81;61.91;100759.31;5049705;28;20094;-78
2023/10/13 03:37:54;;;;;;;214.48;205.55;;;;;;;19.81;62.50;100744.78;5046498;28;20029;-78
2023/10/13 03:46:08;;;;;;;213.77;204.85;;;;;;;19.79;62.53;100738.78;4991607;28;20042;-79
2023/10/13 03:48:40;;;;;;;216.88;207.75;;;;;;;19.78;62.61;100735.25;5034976;28;20095;-77
2023/10/13 03:51:15;;;;;;;214.48;205.35;;;;;;;19.79;62.17;100727.84;5042947;28;20057;-79
2023/10/13 03:53:54;;;;;;;214.55;205.30;;;;;;;19.78;62.87;100713.31;5022592;28;20397;-80
2023/10/13 03:56:39;;;;;;;216.15;207.23;;;;;;;19.77;62.55;100717.16;5042987;28;20041;-81
2023/10/13 03:59:09;;;;;;;215.18;205.30;;;;;;;19.77;62.42;100717.16;5043953;28;20056;-81
2023/10/13 04:17:15;;;;;;;218.63;209.65;;;;;;;19.74;63.08;100698.59;5045256;28;20542;-81
2023/10/13 04:36:14;;;;;;;215.30;206.52;;;;;;;19.73;64.15;100687.94;5038823;28;20124;-78
2023/10/13 04:39:16;;;;;;;211.48;202.93;;;;;;;19.73;64.48;100683.28;5044906;28;20058;-78
2023/10/13 04:49:28;;;;;;;210.02;201.20;;;;;;;19.72;64.85;100687.13;5044192;28;20041;-78
2023/10/13 04:57:46;;;;;;;212.10;203.50;;;;;;;19.74;64.67;100670.38;5019363;28;20097;-79
2023/10/13 05:00:55;;;;;;;211.35;202.98;;;;;;;19.75;64.63;100658.28;5045626;28;20035;-78
2023/10/13 05:47:12;;;;;;;219.43;210.63;;;;;;;19.84;64.45;100583.25;5044461;28;20053;-81
2023/10/13 06:31:02;;;;;;;218.38;209.50;;;;;;;19.89;64.44;100535.75;5035355;28;20113;-78
2023/10/13 06:33:33;;;;;;;219.38;210.05;;;;;;;19.88;64.31;100537.69;5050321;28;20060;-78
2023/10/13 06:36:02;;;;;;;217.75;208.57;;;;;;;19.90;64.29;100534.59;5036104;28;20484;-79
2023/10/13 06:38:35;;;;;;;215.82;206.93;;;;;;;19.91;64.32;100530.75;5039673;28;20393;-77
2023/10/13 06:41:06;;;;;;;219.98;210.73;;;;;;;19.92;64.33;100520.59;5015813;28;20037;-78
2023/10/13 06:43:43;;;;;;;218.98;210.18;;;;;;;19.94;64.57;100515.63;5048669;28;20381;-78
2023/10/13 06:46:14;;;;;;;224.35;215.32;;;;;;;19.94;64.54;100510.13;5050425;28;20109;-78
2023/10/13 06:48:41;;;;;;;218.70;209.65;;;;;;;19.94;64.23;100502.72;5050734;28;20045;-78
2023/10/13 06:51:22;;;;;;;215.90;206.65;;;;;;;19.94;64.03;100505.47;5041554;28;20041;-78
2023/10/13 06:53:49;;;;;;;226.68;217.68;;;;;;;19.95;64.21;100503.53;5035854;28;20028;-79
2023/10/13 06:56:28;;;;;;;220.73;211.52;;;;;;;19.95;64.10;100500.78;5051207;28;20041;-80
2023/10/13 06:58:59;;;;;;;225.07;215.60;;;;;;;19.95;64.37;100500.78;5052775;28;20068;-80
2023/10/13 07:01:27;;;;;;;227.02;217.68;;;;;;;19.95;64.62;100498.03;5051818;28;20040;-78
2023/10/13 07:03:53;;;;;;;223.88;214.10;;;;;;;19.96;64.27;100494.16;5037369;28;20770;-81
2023/10/13 07:06:22;;;;;;;222.75;213.68;;;;;;;19.95;64.30;100489.81;5021349;28;20079;-78
2023/10/13 07:08:53;;;;;;;;;;;;;;;19.95;64.62;100481.59;5049151;28;20033;-78
2023/10/13 07:11:32;;;;;;;211.00;201.90;;;;;;;19.93;64.74;100475.59;5051018;28;19925;-77
2023/10/13 07:14:09;;;;;;;216.25;207.10;;;;;;;19.93;64.84;100479.16;5034727;28;20094;-78
2023/10/13 07:16:46;;;;;;;215.88;207.32;;;;;;;19.91;64.49;100472.38;5019382;28;20041;-79
2023/10/13 07:19:17;;;;;;;218.80;209.05;;;;;;;19.92;64.38;100471.25;5049019;28;20041;-80
2023/10/13 07:21:45;;;;;;;218.57;209.48;;;;;;;19.93;64.63;100462.69;5035875;28;20484;-78
2023/10/13 07:24:13;;;;;;;222.68;213.18;;;;;;;19.94;64.57;100466.28;5033523;28;20037;-80
2023/10/13 07:27:22;;;;;;;222.05;213.07;;;;;;;19.95;64.65;100473.38;5051013;28;20106;-81
2023/10/13 07:29:27;;;;;;;;;;;;;;;19.95;64.83;100473.38;5043835;28;20049;-78
2023/10/13 07:31:52;;;;;;;213.23;204.60;;;;;;;19.94;64.76;100480.00;5037836;28;20046;-81
2023/10/13 07:34:26;;;;;;;222.27;212.93;;;;;;;19.95;64.97;100467.88;5013999;28;20037;-80
2023/10/13 07:36:52;;;;;;;214.07;205.20;;;;;;;19.94;64.75;100464.34;5031605;28;20040;-79
2023/10/13 07:39:21;;;;;;;226.13;216.13;;;;;;;19.96;64.96;100469.50;5050301;28;20036;-80
2023/10/13 07:42:03;;;;;;;222.18;212.60;;;;;;;19.97;64.97;100471.13;5046698;28;20037;-80
2023/10/13 07:44:31;;;;;;;219.38;209.85;;;;;;;19.98;64.80;100461.78;5050077;28;20033;-80
2023/10/13 07:46:58;;;;;;;219.73;210.95;;;;;;;19.98;64.79;100468.09;5034730;28;20086;-80
2023/10/13 07:49:30;;;;;;;219.35;210.45;;;;;;;19.97;65.16;100460.97;5051805;28;20329;-80
2023/10/13 07:52:10;;;;;;;218.77;209.82;;;;;;;19.98;64.84;100459.03;5041282;28;20490;-79
2023/10/13 07:54:39;;;;;;;217.52;208.85;;;;;;;19.99;64.90;100464.22;5050743;28;20064;-81
2023/10/13 07:57:07;;;;;;;219.45;210.50;;;;;;;19.99;65.26;100461.47;5017834;28;20203;-80
2023/10/13 07:59:38;;;;;;;223.52;213.90;;;;;;;20.00;64.91;100467.75;5052012;28;20104;-80
2023/10/13 08:02:12;;;;;;;220.25;211.07;;;;;;;20.01;64.63;100461.16;5032027;28;20048;-75
2023/10/13 08:04:38;;;;;;;229.35;217.52;;;;;;;20.03;64.78;100458.91;5037862;28;20090;-75
2023/10/13 08:07:13;;;;;;;217.70;208.82;;;;;;;20.04;65.23;100463.28;5035826;28;20389;-74
2023/10/13 08:09:43;;;;;;;222.07;213.15;;;;;;;20.03;64.95;100470.69;5048161;28;20037;-75
2023/10/13 08:12:11;;;;;;;220.68;210.70;;;;;;;20.03;65.18;100459.75;5045218;28;20041;-74
2023/10/13 08:14:39;;;;;;;220.73;211.40;;;;;;;20.04;65.12;100457.78;5047030;28;20040;-77
2023/10/13 08:17:08;;;;;;;220.68;211.77;;;;;;;20.05;65.17;100453.91;5032709;28;20112;-77
2023/10/13 08:19:41;;;;;;;222.30;213.52;;;;;;;20.08;64.73;100445.06;5035201;28;20051;-77
2023/10/13 08:56:15;;;;;;;219.05;209.43;;;;;;;20.17;64.84;100432.22;5050628;28;20090;-77
2023/10/13 09:04:38;;;;;;;216.45;207.70;;;;;;;20.23;64.69;100416.44;4988917;28;20118;-79
2023/10/13 09:15:05;;;;;;;220.82;211.88;;;;;;;20.28;64.63;100413.53;5045103;28;20033;-76
2023/10/13 09:19:59;;;;;;;;;;;;;;;20.29;64.69;100401.47;5036570;28;20573;-77
2023/10/13 09:22:35;;;;;;;217.13;208.18;;;;;;;20.29;64.44;100398.72;5043180;28;20007;-77
2023/10/13 09:25:02;;;;;;;218.98;209.65;;;;;;;20.31;64.35;100393.75;5036471;28;20370;-77
2023/10/13 09:27:32;;;;;;;226.40;216.40;;;;;;;20.32;64.88;100398.91;5044101;28;20528;-77
2023/10/13 09:32:45;;;;;;;229.02;219.77;;;;;;;20.36;64.42;100395.50;5046501;28;20048;-78
2023/10/13 09:35:18;;;;;;;229.98;219.98;;;;;;;20.37;64.72;100388.91;5045547;28;20408;-78
2023/10/13 09:37:47;;;;;;;228.98;219.57;;;;;;;20.38;64.85;100393.25;5031390;28;20037;-78
2023/10/13 09:43:15;;;;;;;230.88;220.35;;;;;;;20.41;64.25;100381.66;5024601;28;20488;-78
2023/10/13 09:45:56;;;;;;;;;;;;;;;20.41;64.44;100374.25;5047819;28;20183;-78
2023/10/13 09:48:29;;;;;;;230.80;220.95;;;;;;;20.43;64.76;100368.44;5033011;28;19917;-79
2023/10/13 09:50:59;;;;;;;234.50;224.63;;;;;;;20.43;64.73;100368.44;5046612;28;20456;-78
2023/10/13 09:53:25;;;;;;;232.65;222.57;;;;;;;20.44;64.11;100365.38;5049648;28;20040;-79
2023/10/13 09:56:11;;;;;;;234.90;225.18;;;;;;;20.47;64.73;100369.41;5016082;28;20029;-79
2023/10/13 09:58:47;;;;;;;232.32;222.95;;;;;;;20.49;64.48;100356.19;5047356;28;20412;-78
2023/10/13 10:01:21;;;;;;;231.15;222.07;;;;;;;20.50;64.70;100358.59;5045167;28;20449;-78
2023/10/13 10:03:52;;;;;;;240.18;230.45;;;;;;;20.51;64.29;100349.25;5049226;28;20469;-78
2023/10/13 10:06:39;;;;;;;240.80;231.23;;;;;;;20.53;64.28;100359.91;5048835;28;20401;-79
2023/10/13 10:09:12;;;;;;;237.77;228.02;;;;;;;20.53;64.30;100354.41;5032745;28;20132;-78
2023/10/13 10:12:05;;;;;;;240.48;230.07;;;;;;;20.53;64.06;100351.66;5049608;28;20484;-78
2023/10/13 10:15:05;;;;;;;242.32;232.68;;;;;;;20.53;64.43;100335.22;5049453;28;20099;-76
2023/10/13 10:17:39;;;;;;;237.95;228.05;;;;;;;20.55;64.08;100337.69;5042941;28;20128;-76
2023/10/13 10:20:14;;;;;;;242.68;231.93;;;;;;;20.55;63.98;100338.47;5044521;28;20083;-76
2023/10/13 10:22:44;;;;;;;243.52;233.15;;;;;;;20.58;64.32;100337.03;5029719;28;20084;-77
2023/10/13 10:25:25;;;;;;;242.32;232.07;;;;;;;20.60;64.29;100319.13;5028815;28;20068;-77
2023/10/13 10:27:58;;;;;;;244.65;234.48;;;;;;;20.63;63.89;100323.16;5038726;28;20034;-77
2023/10/13 10:30:28;;;;;;;249.10;238.15;;;;;;;20.64;63.72;100320.09;5047408;28;20064;-78
2023/10/13 10:33:01;;;;;;;244.10;234.48;;;;;;;20.64;64.14;100327.53;5034885;28;20037;-79
2023/10/13 10:35:32;;;;;;;243.50;233.23;;;;;;;20.66;63.94;100336.22;5034570;28;20049;-79
2023/10/13 10:41:06;;;;;;;247.35;237.02;;;;;;;20.63;63.69;100334.94;5053129;28;20378;-78
2023/10/13 10:43:46;;;;;;;242.65;232.65;;;;;;;20.61;64.23;100350.91;5045424;28;20051;-77
2023/10/13 10:46:12;;;;;;;252.30;241.35;;;;;;;20.63;63.92;100362.38;5050495;28;20072;-78
2023/10/13 10:48:43;;;;;;;243.35;233.77;;;;;;;20.64;63.84;100360.47;5052411;28;20036;-78
2023/10/13 10:51:22;;;;;;;245.70;234.52;;;;;;;20.68;63.66;100362.22;5035813;28;20033;-78
2023/10/13 10:53:52;;;;;;;245.48;235.20;;;;;;;20.70;63.77;100348.19;5037702;28;20036;-78
2023/10/13 10:56:36;;;;;;;250.88;240.45;;;;;;;20.69;63.66;100355.63;5044304;28;20449;-78
2023/10/13 10:59:18;;;;;;;245.63;235.55;;;;;;;20.73;64.12;100348.34;5033268;28;20037;-78
2023/10/13 11:01:47;;;;;;;245.05;234.77;;;;;;;20.78;63.62;100341.91;5045906;28;20083;-78
2023/10/13 11:06:55;;;;;;;251.68;241.52;;;;;;;20.83;63.77;100310.75;5052971;28;20036;-78
2023/10/13 11:09:31;;;;;;;248.40;238.15;;;;;;;20.86;63.77;100313.66;5052121;28;20037;-78
2023/10/13 11:12:06;;;;;;;253.82;243.60;;;;;;;20.87;63.72;100315.28;5047698;28;20034;-78
2023/10/13 11:14:31;;;;;;;254.85;243.70;;;;;;;20.85;63.63;100303.81;5045334;28;20405;-78
2023/10/13 11:17:05;;;;;;;259.75;249.25;;;;;;;20.86;63.52;100305.41;5044776;28;20041;-77
2023/10/13 11:19:35;;;;;;;251.98;241.38;;;;;;;20.86;63.42;100293.63;5043094;28;20037;-79
2023/10/13 11:22:36;;;;;;;247.82;237.63;;;;;;;20.87;63.41;100296.06;5036548;28;20033;-79
2023/10/13 11:25:09;;;;;;;247.15;236.40;;;;;;;20.89;63.60;100282.00;5051568;28;20033;-79
2023/10/13 11:31:10;;;;;;;249.95;238.80;;;;;;;20.93;63.71;100282.97;5034162;28;20381;-79
2023/10/13 11:33:06;;;;;;;253.27;241.40;;;;;;;20.92;63.82;100271.19;5038647;28;20087;-78
2023/10/13 11:38:26;;;;;;;249.90;238.27;;;;;;;20.94;63.87;100270.84;5033736;28;20037;-78
2023/10/13 11:51:46;;;;;;;264.17;252.63;;;;;;;21.01;63.18;100243.72;5035374;28;20051;-78
2023/10/13 11:54:21;;;;;;;253.50;242.75;;;;;;;21.03;63.38;100235.97;5051039;28;20512;-78
2023/10/13 11:56:48;;;;;;;256.33;245.82;;;;;;;21.04;63.15;100232.09;5037655;28;20083;-77
2023/10/13 11:59:17;;;;;;;262.17;249.90;;;;;;;21.06;63.42;100246.28;5033448;28;20041;-77
2023/10/13 12:04:41;;;;;;;258.75;246.90;;;;;;;21.09;63.44;100225.59;5042157;28;20070;-78
2023/10/13 12:12:19;;;;;;;262.05;251.27;;;;;;;21.12;62.72;100211.25;5046651;28;20053;-79
2023/10/13 12:14:57;;;;;;;265.48;254.23;;;;;;;21.13;63.10;100208.16;5049113;28;20037;-78
2023/10/13 12:17:39;;;;;;;254.77;243.88;;;;;;;21.14;62.96;100225.44;5050424;28;20044;-80
2023/10/13 12:20:09;;;;;;;261.27;251.00;;;;;;;21.16;62.56;100236.91;5036378;28;20104;-78
2023/10/13 12:22:35;;;;;;;262.83;251.98;;;;;;;21.17;63.09;100233.84;5031985;28;20469;-78
2023/10/13 12:25:14;;;;;;;264.27;253.77;;;;;;;21.20;62.58;100220.59;5032508;28;20099;-77
2023/10/13 12:27:48;;;;;;;269.30;258.42;;;;;;;21.22;62.34;100210.06;5044805;28;20044;-78
2023/10/13 12:30:16;;;;;;;264.83;252.88;;;;;;;21.24;62.64;100218.78;5031589;28;20485;-77
2023/10/13 12:32:53;;;;;;;254.82;244.15;;;;;;;21.25;62.71;100209.44;5047168;28;20041;-78
2023/10/13 12:35:35;;;;;;;262.25;251.45;;;;;;;21.26;62.42;100211.03;5049936;28;20087;-78
2023/10/13 12:38:16;;;;;;;264.27;252.15;;;;;;;21.28;62.67;100217.03;5044625;28;20389;-77
2023/10/13 12:49:04;;;;;;;266.00;255.10;;;;;;;21.29;61.82;100200.22;5037903;28;20260;-78
2023/10/13 12:54:05;;;;;;;263.80;252.80;;;;;;;21.34;62.03;100188.22;5039458;28;20179;-78
2023/10/13 12:56:31;;;;;;;266.85;255.77;;;;;;;21.34;62.15;100191.81;5046481;28;20048;-78
2023/10/13 12:58:56;;;;;;;269.83;258.00;;;;;;;21.38;61.63;100203.75;5032032;28;20033;-78
2023/10/13 13:01:24;;;;;;;263.17;251.88;;;;;;;21.40;62.11;100186.97;5049089;28;20041;-78
2023/10/13 13:03:58;;;;;;;263.05;251.77;;;;;;;21.43;61.81;100189.03;5049030;28;20453;-78
2023/10/13 13:06:26;;;;;;;263.95;253.15;;;;;;;21.45;62.13;100189.53;5049516;28;20051;-78
2023/10/13 13:08:58;;;;;;;260.25;248.30;;;;;;;21.47;61.78;100192.75;5038587;28;20534;-79
2023/10/13 13:11:24;;;;;;;263.65;253.10;;;;;;;21.48;61.64;100190.81;5040846;28;20103;-79
2023/10/13 13:13:51;;;;;;;267.50;256.33;;;;;;;21.49;61.53;100190.47;5042172;28;20057;-78
2023/10/13 13:16:30;;;;;;;265.63;254.40;;;;;;;21.52;61.35;100186.25;5044432;28;20132;-78
2023/10/13 13:18:56;;;;;;;260.08;249.95;;;;;;;21.53;61.29;100187.88;5040577;28;20543;-78
2023/10/13 13:21:24;;;;;;;271.80;261.13;;;;;;;21.56;61.12;100187.22;5049306;28;20048;-78
2023/10/13 13:23:50;;;;;;;;;;;;;;;21.55;61.10;100197.41;5033497;28;20061;-78
2023/10/13 13:26:15;;;;;;;261.98;250.75;;;;;;;21.56;61.22;100184.47;5034211;28;19979;-77
2023/10/13 13:28:45;;;;;;;268.40;256.42;;;;;;;21.58;61.33;100190.44;5042314;28;20039;-77
2023/10/13 13:31:12;;;;;;;272.42;261.13;;;;;;;21.59;60.91;100186.53;5041819;28;20098;-80
2023/10/13 13:33:43;;;;;;;271.58;260.77;;;;;;;21.61;61.08;100187.03;5049659;28;20049;-78
2023/10/13 13:36:15;;;;;;;271.35;259.55;;;;;;;21.62;61.39;100194.16;5035676;28;20036;-78
2023/10/13 13:38:40;;;;;;;270.30;259.27;;;;;;;21.64;60.89;100196.53;5036579;28;20385;-78
2023/10/13 13:41:15;;;;;;;271.55;260.52;;;;;;;21.65;61.32;100196.22;5039763;28;20029;-78
2023/10/13 13:43:50;;;;;;;272.00;261.20;;;;;;;21.65;60.79;100177.00;5048106;28;20033;-77
2023/10/13 13:46:17;;;;;;;271.35;260.55;;;;;;;21.67;60.93;100195.88;5033203;28;20461;-78
2023/10/13 13:48:42;;;;;;;267.85;256.95;;;;;;;21.70;60.80;100185.03;5048831;28;20040;-78
2023/10/13 13:51:14;;;;;;;275.83;264.67;;;;;;;21.71;60.81;100174.84;5058283;28;20044;-78
2023/10/13 13:53:47;;;;;;;276.20;264.65;;;;;;;21.74;61.06;100172.22;5052627;28;20087;-78
2023/10/13 13:56:18;;;;;;;270.60;259.60;;;;;;;21.75;60.51;100184.06;5059654;28;20388;-78
2023/10/13 13:58:48;;;;;;;270.88;259.90;;;;;;;21.76;60.88;100174.66;5049348;28;20063;-78
2023/10/13 14:01:26;;;;;;;274.50;263.10;;;;;;;21.77;60.94;100165.25;5041492;28;20041;-77
2023/10/13 14:03:56;;;;;;;279.42;265.83;;;;;;;21.79;60.75;100174.00;5047058;28;20057;-78
2023/10/13 14:06:23;;;;;;;277.17;265.00;;;;;;;21.78;60.58;100183.38;5048785;28;20048;-76
2023/10/13 14:09:04;;;;;;;269.33;258.63;;;;;;;21.80;60.89;100172.88;5046847;28;20090;-77
2023/10/13 14:14:04;;;;;;;281.70;269.42;;;;;;;21.85;60.42;100185.59;5034217;28;20060;-74
2023/10/13 14:16:33;;;;;;;278.70;267.45;;;;;;;21.88;60.61;100173.97;5050721;28;20033;-78
2023/10/13 14:19:01;;;;;;;276.00;264.77;;;;;;;21.87;60.50;100184.13;5030503;28;20088;-78
2023/10/13 14:21:27;;;;;;;277.17;265.95;;;;;;;21.86;60.42;100182.53;5020001;28;20045;-78
2023/10/13 14:23:53;;;;;;;279.40;267.15;;;;;;;21.88;60.57;100176.72;5044874;28;20037;-78
2023/10/13 14:26:21;;;;;;;273.45;261.92;;;;;;;21.87;60.52;100188.81;5055562;28;20045;-79
2023/10/13 14:29:05;;;;;;;275.77;264.77;;;;;;;21.88;60.60;100185.75;5043302;28;20462;-75
2023/10/13 14:31:31;;;;;;;278.88;267.05;;;;;;;21.90;60.54;100197.22;5035559;28;20034;-77
2023/10/13 14:33:57;;;;;;;274.73;263.42;;;;;;;21.93;60.76;100188.31;5037381;28;20403;-77
2023/10/13 14:36:23;;;;;;;275.95;264.88;;;;;;;21.94;60.18;100202.88;5039654;28;20323;-76
2023/10/13 14:38:49;;;;;;;275.52;264.05;;;;;;;21.96;60.20;100198.63;5039779;28;20079;-78
2023/10/13 14:41:18;;;;;;;283.17;272.05;;;;;;;21.98;60.04;100195.56;5044916;28;20068;-75
2023/10/13 14:43:47;;;;;;;279.45;267.50;;;;;;;22.00;60.25;100185.84;5029991;28;20033;-77
2023/10/13 14:46:17;;;;;;;280.45;269.27;;;;;;;22.02;60.31;100194.56;5040811;28;20072;-77
2023/10/13 14:48:48;;;;;;;281.45;270.05;;;;;;;22.02;60.49;100191.81;5047313;28;20051;-78
2023/10/13 14:51:16;;;;;;;274.35;263.52;;;;;;;22.03;60.41;100203.63;5047156;28;20057;-76
2023/10/13 14:53:45;;;;;;;281.75;270.60;;;;;;;22.01;60.51;100190.19;5049311;28;20033;-76
2023/10/13 14:56:15;;;;;;;277.75;266.63;;;;;;;22.02;60.47;100177.25;5042989;28;20044;-75
2023/10/13 14:58:44;;;;;;;276.83;264.42;;;;;;;22.02;60.29;100171.75;5036332;28;20029;-75
2023/10/13 15:01:20;;;;;;;279.85;268.27;;;;;;;22.03;60.72;100168.69;5042416;28;20243;-75
2023/10/13 15:03:48;;;;;;;276.40;265.40;;;;;;;22.06;60.14;100169.16;5046029;28;20032;-76
2023/10/13 15:06:35;;;;;;;279.48;268.08;;;;;;;22.06;60.11;100166.41;5055782;28;20028;-75
2023/10/13 15:09:02;;;;;;;268.88;256.98;;;;;;;22.04;60.15;100175.78;5045012;28;20148;-75
2023/10/13 15:11:35;;;;;;;267.83;257.02;;;;;;;22.03;60.55;100185.19;5055549;28;20037;-76
2023/10/13 15:14:02;;;;;;;271.08;260.23;;;;;;;22.04;60.36;100162.03;5036558;28;20061;-76
2023/10/13 15:16:28;;;;;;;274.88;263.95;;;;;;;22.06;60.28;100152.66;5051397;28;20037;-76
2023/10/13 15:18:54;;;;;;;279.75;268.25;;;;;;;22.06;60.29;100141.66;5051201;28;20040;-75
2023/10/13 15:21:22;;;;;;;268.02;256.15;;;;;;;22.07;60.03;100137.75;5046865;28;20081;-75